Date,TemperatureHighF,TemperatureAvgF,TemperatureLowF,DewpointHighF,DewpointAvgF,DewpointLowF,HumidityHigh,HumidityAvg,HumidityLow,PressureMaxIn,PressureMinIn,WindSpeedMaxMPH,WindSpeedAvgMPH,GustSpeedMaxMPH,PrecipitationSumIn
2013-10-1,53,44,36,47,41,35,96,89,66,30.21,29.97,9,1,0,0.76
2013-10-2,54,42,34,45,39,32,97,88,63,30.21,30.06,8,0,0,0.03
2013-10-3,59,45,34,45,39,33,96,82,49,30.44,30.17,7,0,0,0.00
2013-10-4,62,43,30,48,38,29,97,84,50,30.52,30.41,11,1,0,0.01
2013-10-5,66,45,31,50,40,30,97,83,48,30.44,30.24,7,0,0,0.01
2013-10-6,70,50,34,54,42,33,97,76,48,30.25,29.97,8,0,0,0.01
2013-10-7,54,51,47,47,43,38,93,76,54,30.03,29.94,13,1,13,0.17
2013-10-8,50,44,36,45,41,34,96,87,76,30.04,29.96,10,1,0,0.49
2013-10-9,56,42,31,47,38,30,97,88,59,30.14,29.98,6,0,0,0.00
2013-10-10,58,48,36,46,41,34,95,79,54,30.07,29.94,13,1,13,0.00
2013-10-11,56,44,38,42,39,36,95,86,60,30.11,30.06,8,0,0,0.00
2013-10-12,52,44,35,45,41,34,96,90,73,30.19,30.06,6,0,0,0.06
2013-10-13,62,44,33,48,39,32,97,83,47,30.34,30.19,7,0,0,0.00
2013-10-14,62,43,30,46,36,29,97,80,39,30.42,30.33,13,1,13,0.01
2013-10-15,59,42,30,42,36,28,96,80,47,30.44,30.20,15,1,16,0.01
2013-10-16,63,44,31,45,37,30,97,81,46,30.22,30.15,9,0,0,0.00
2013-10-17,63,44,31,46,38,30,97,82,49,30.29,30.22,8,0,0,0.01
2013-10-18,62,43,30,45,37,29,97,82,47,30.31,30.19,9,0,0,0.01
2013-10-19,67,46,30,51,39,29,97,80,46,30.21,30.08,5,0,0,0.01
2013-10-20,69,48,33,52,41,32,97,80,46,30.20,30.11,3,0,0,0.00
2013-10-21,71,49,36,51,43,35,97,81,44,30.20,30.10,11,0,0,0.01
2013-10-22,68,48,36,51,42,35,97,83,49,30.19,30.06,6,0,0,0.01
2013-10-23,67,47,34,51,42,33,97,85,54,30.14,30.04,6,0,0,0.01
2013-10-24,66,47,35,53,43,34,97,86,57,30.14,30.05,6,0,0,0.01
2013-10-25,68,48,36,54,44,35,98,87,58,30.27,30.13,4,0,0,0.01
2013-10-26,62,45,33,51,41,32,98,89,66,30.30,30.15,6,0,0,0.01
2013-10-27,53,44,36,45,41,35,97,90,65,30.16,29.81,13,1,17,0.25
2013-10-28,51,41,29,43,33,26,96,76,44,29.98,29.87,18,1,22,0.01
2013-10-29,52,35,25,32,28,23,94,77,41,30.09,29.98,9,1,0,0.01
2013-10-30,57,43,28,39,32,26,95,67,39,30.17,30.08,14,1,14,0.00
2013-10-31,59,51,42,49,44,37,91,77,63,30.26,30.12,15,2,17,0.00